Time;durP1;ratioP1;P1;durP2;ratioP2;P2;SDS_P1;SDS_P2;PMS_P1;PMS_P2;Temp;Humidity;BMP_temperature;BMP_pressure;BME280_temperature;BME280_humidity;BME280_pressure;Samples;Min_cycle;Max_cycle;Signal;HPM_P1;HPM_P2
2022/06/28 00:01:52;;;;;;;8.00;1.38;;;;;;;12.77;100.00;98291.19;5086681;28;20518;-96
2022/06/28 00:04:19;;;;;;;8.68;1.77;;;;;;;12.84;100.00;98289.28;5093329;28;20020;-95
2022/06/28 00:06:45;;;;;;;8.10;1.63;;;;;;;12.85;100.00;98286.63;5084301;28;20085;-96
2022/06/28 00:09:12;;;;;;;6.57;1.08;;;;;;;12.91;100.00;98293.47;5078840;28;20059;-96
2022/06/28 00:11:39;;;;;;;10.55;1.38;;;;;;;12.79;100.00;98294.66;5083755;28;20043;-95
2022/06/28 00:16:04;;;;;;;6.20;1.40;;;;;;;12.81;100.00;98291.06;5093337;28;20033;-96
2022/06/28 00:16:50;;;;;;;10.57;1.50;;;;;;;12.71;100.00;98302.69;5096656;28;20025;-93
2022/06/28 00:19:18;;;;;;;7.57;1.30;;;;;;;12.79;100.00;98300.72;5102707;28;20135;-95
2022/06/28 00:21:50;;;;;;;9.90;1.58;;;;;;;12.74;100.00;98288.66;5086827;28;20055;-95
2022/06/28 00:24:16;;;;;;;6.07;1.35;;;;;;;12.59;100.00;98298.59;5082266;28;20027;-95
2022/06/28 00:26:42;;;;;;;6.95;1.30;;;;;;;12.77;100.00;98291.19;5076675;28;20032;-95
2022/06/28 00:29:10;;;;;;;8.15;1.58;;;;;;;13.00;100.00;98294.97;5079625;28;20048;-95
2022/06/28 00:31:35;;;;;;;9.48;1.48;;;;;;;13.13;100.00;98293.75;5080937;28;20033;-95
2022/06/28 00:34:03;;;;;;;9.30;1.38;;;;;;;13.13;100.00;98296.38;5080067;28;20108;-95
2022/06/28 00:36:29;;;;;;;9.95;1.63;;;;;;;13.17;100.00;98292.78;5077095;28;20027;-96
2022/06/28 00:38:56;;;;;;;8.70;1.70;;;;;;;13.13;100.00;98291.13;5083525;28;20054;-95
2022/06/28 00:41:22;;;;;;;9.93;1.58;;;;;;;13.12;100.00;98292.91;5075592;28;20020;-96
2022/06/28 00:43:47;;;;;;;11.05;1.58;;;;;;;13.21;100.00;98290.91;5085377;28;20078;-96
2022/06/28 00:46:20;;;;;;;8.70;1.77;;;;;;;13.30;100.00;98296.78;5081361;28;20111;-95
2022/06/28 00:48:48;;;;;;;8.82;1.60;;;;;;;13.27;100.00;98291.59;5076263;28;20472;-96
2022/06/28 00:51:16;;;;;;;9.02;1.55;;;;;;;13.12;100.00;98300.75;5076048;28;20074;-95
2022/06/28 00:53:41;;;;;;;11.73;1.92;;;;;;;13.10;100.00;98309.56;5080539;28;20037;-96
2022/06/28 00:56:08;;;;;;;9.00;1.60;;;;;;;13.13;100.00;98296.38;5059139;28;21825;-95
2022/06/28 00:58:33;;;;;;;11.18;1.70;;;;;;;13.65;100.00;98296.69;5066887;28;20125;-96
2022/06/28 01:00:59;;;;;;;10.25;1.67;;;;;;;13.49;100.00;98291.91;5063328;28;20032;-96
2022/06/28 01:03:27;;;;;;;9.38;1.70;;;;;;;13.39;100.00;98295.69;5065320;28;20059;-95
2022/06/28 01:05:54;;;;;;;7.03;1.15;;;;;;;13.25;100.00;98301.28;5083398;28;20035;-95
2022/06/28 01:08:20;;;;;;;11.38;1.65;;;;;;;13.46;100.00;98301.63;5061314;28;20115;-96
2022/06/28 01:10:46;;;;;;;7.35;1.67;;;;;;;13.43;100.00;98307.81;5059030;28;20051;-95
2022/06/28 01:13:13;;;;;;;14.65;2.13;;;;;;;13.47;100.00;98312.06;5077267;28;20032;-94
2022/06/28 01:15:41;;;;;;;8.45;1.65;;;;;;;13.43;100.00;98310.44;5067810;28;20038;-95
2022/06/28 01:18:13;;;;;;;12.10;1.80;;;;;;;13.27;100.00;98309.94;5064502;28;20046;-94
2022/06/28 01:20:46;;;;;;;8.20;1.83;;;;;;;13.53;100.00;98299.66;5075785;28;20067;-95
2022/06/28 01:23:16;;;;;;;12.30;1.77;;;;;;;13.49;100.00;98298.91;5059019;28;20024;-95
2022/06/28 01:25:44;;;;;;;7.13;1.60;;;;;;;13.55;100.00;98301.34;5068448;28;20020;-95
2022/06/28 01:28:13;;;;;;;9.70;1.52;;;;;;;13.61;100.00;98290.72;5061344;28;20055;-96
2022/06/28 01:30:39;;;;;;;12.23;1.35;;;;;;;13.50;100.00;98298.03;5075291;28;20028;-95
2022/06/28 01:33:05;;;;;;;10.60;2.20;;;;;;;13.75;100.00;98287.69;5058341;28;20776;-95
2022/06/28 01:35:31;;;;;;;9.40;1.63;;;;;;;13.47;100.00;98288.47;5057805;28;20028;-95
2022/06/28 01:37:57;;;;;;;10.63;1.75;;;;;;;13.46;100.00;98278.06;5085170;28;20025;-95
2022/06/28 01:40:25;;;;;;;10.77;1.70;;;;;;;13.63;100.00;98282.78;5085023;28;20016;-94
2022/06/28 01:42:51;;;;;;;9.68;1.73;;;;;;;13.52;100.00;98282.25;5095110;28;20047;-95
2022/06/28 01:45:20;;;;;;;10.75;1.65;;;;;;;13.50;100.00;98282.31;5090282;28;20029;-94
2022/06/28 01:47:53;;;;;;;10.05;1.58;;;;;;;13.86;100.00;98278.63;5065308;28;20024;-94
2022/06/28 01:53:32;;;;;;;10.50;1.65;;;;;;;13.78;100.00;98286.75;5052612;28;20041;-94
2022/06/28 01:55:58;;;;;;;11.38;2.00;;;;;;;13.83;100.00;98284.81;5079696;28;20068;-95
2022/06/28 01:58:23;;;;;;;12.88;2.30;;;;;;;13.83;100.00;98290.94;5073863;28;20028;-95
2022/06/28 02:00:49;;;;;;;10.25;1.70;;;;;;;14.11;100.00;98295.34;5068261;28;20133;-95
2022/06/28 02:03:14;;;;;;;13.63;2.35;;;;;;;14.24;100.00;98289.72;5081377;28;20024;-95
2022/06/28 02:05:41;;;;;;;10.18;1.65;;;;;;;13.84;100.00;98294.41;5076159;28;20019;-94
2022/06/28 02:08:06;;;;;;;10.23;1.85;;;;;;;13.85;100.00;98292.63;5078839;28;20153;-95
2022/06/28 02:10:33;;;;;;;13.32;1.90;;;;;;;13.76;100.00;98297.25;5075844;28;20036;-95
2022/06/28 02:12:59;;;;;;;11.73;2.17;;;;;;;13.75;100.00;98302.53;5066916;28;20090;-95
2022/06/28 02:15:25;;;;;;;8.02;1.73;;;;;;;13.85;100.00;98298.75;5067980;28;20040;-94
2022/06/28 02:17:51;;;;;;;15.10;1.77;;;;;;;13.70;100.00;98301.81;5080768;28;20028;-95
2022/06/28 02:20:16;;;;;;;12.15;1.80;;;;;;;13.94;100.00;98305.47;5078826;28;20028;-94
2022/06/28 02:22:42;;;;;;;10.25;1.67;;;;;;;13.54;100.00;98291.78;5074733;28;20119;-95
2022/06/28 02:25:08;;;;;;;8.38;1.50;;;;;;;13.77;100.00;98292.88;5072301;28;20126;-95
2022/06/28 02:27:36;;;;;;;10.98;1.70;;;;;;;13.81;100.00;98291.88;5075381;28;20062;-95
2022/06/28 02:30:03;;;;;;;10.73;1.80;;;;;;;13.92;100.00;98289.78;5078083;28;20029;-96
2022/06/28 02:32:29;;;;;;;10.73;1.83;;;;;;;13.86;100.00;98282.09;5077784;28;20062;-95
2022/06/28 02:40:30;;;;;;;10.38;1.80;;;;;;;13.80;100.00;98267.41;5081297;28;20129;-95
2022/06/28 02:42:59;;;;;;;12.30;2.25;;;;;;;13.75;100.00;98268.47;5078650;28;20293;-94
2022/06/28 02:45:28;;;;;;;13.63;2.10;;;;;;;13.88;100.00;98268.97;5076293;28;20036;-94
2022/06/28 02:47:54;;;;;;;8.73;1.60;;;;;;;13.94;100.00;98274.88;5080892;28;20135;-94
2022/06/28 02:50:20;;;;;;;12.88;1.90;;;;;;;13.61;100.00;98263.63;5090160;28;20032;-95
2022/06/28 02:52:46;;;;;;;10.93;1.60;;;;;;;13.90;100.00;98268.00;5095846;28;20040;-95
2022/06/28 02:55:11;;;;;;;13.07;2.22;;;;;;;13.99;100.00;98270.34;5090196;28;20041;-95
2022/06/28 02:57:47;;;;;;;10.68;2.03;;;;;;;13.94;100.00;98264.38;5098560;28;20502;-95
2022/06/28 03:00:16;;;;;;;12.57;1.75;;;;;;;13.82;100.00;98264.78;5076471;28;20271;-94
2022/06/28 03:02:43;;;;;;;16.70;2.47;;;;;;;14.05;100.00;98265.81;5080093;28;20551;-95
2022/06/28 03:05:13;;;;;;;12.57;2.08;;;;;;;13.70;100.00;98265.13;5080337;28;20705;-93
2022/06/28 03:07:39;;;;;;;10.65;1.83;;;;;;;13.81;100.00;98265.66;5082439;28;20587;-94
2022/06/28 03:10:07;;;;;;;10.13;1.52;;;;;;;13.50;100.00;98258.72;5069763;28;20023;-95
2022/06/28 03:12:32;;;;;;;9.80;2.08;;;;;;;13.31;100.00;98256.56;5072198;28;20047;-94
2022/06/28 03:14:58;;;;;;;11.30;1.95;;;;;;;13.59;100.00;98260.22;5065365;28;20078;-95
2022/06/28 03:17:24;;;;;;;10.00;1.80;;;;;;;13.75;100.00;98260.59;5069385;28;20557;-95
2022/06/28 03:19:49;;;;;;;10.52;1.70;;;;;;;13.91;100.00;98267.09;5073590;28;20036;-95
2022/06/28 03:22:18;;;;;;;8.98;1.92;;;;;;;13.85;100.00;98266.41;5076943;28;20054;-94
2022/06/28 03:24:43;;;;;;;15.80;2.15;;;;;;;14.12;100.00;98254.22;5066796;28;20027;-95
2022/06/28 03:27:09;;;;;;;9.60;1.98;;;;;;;13.55;100.00;98263.81;5074564;28;20024;-95
2022/06/28 03:29:35;;;;;;;10.30;1.95;;;;;;;13.68;100.00;98265.19;5075386;28;20079;-95
2022/06/28 03:32:00;;;;;;;12.40;1.98;;;;;;;13.71;100.00;98261.59;5073872;28;20597;-95
2022/06/28 03:34:26;;;;;;;9.95;1.70;;;;;;;13.55;100.00;98262.03;5077449;28;20442;-95
2022/06/28 03:36:52;;;;;;;11.18;2.60;;;;;;;13.23;100.00;98258.53;5073515;28;20395;-95
2022/06/28 03:39:19;;;;;;;13.68;2.00;;;;;;;13.26;100.00;98262.84;5076616;28;20052;-95
2022/06/28 03:41:45;;;;;;;9.68;2.15;;;;;;;13.66;100.00;98265.19;5073556;28;20171;-96
2022/06/28 03:44:11;;;;;;;11.05;2.08;;;;;;;13.48;100.00;98257.91;5076385;28;20033;-96
2022/06/28 03:46:36;;;;;;;12.93;2.50;;;;;;;13.35;100.00;98256.47;5073080;28;20028;-95
2022/06/28 03:49:02;;;;;;;11.68;1.88;;;;;;;13.22;100.00;98255.97;5079291;28;20036;-95
2022/06/28 03:51:28;;;;;;;13.25;2.63;;;;;;;13.22;100.00;98254.22;5076989;28;20140;-96
2022/06/28 03:53:53;;;;;;;10.82;2.00;;;;;;;13.57;100.00;98255.00;5075367;28;20558;-96
2022/06/28 03:56:19;;;;;;;15.18;2.42;;;;;;;13.27;100.00;98254.94;5079565;28;20031;-95
2022/06/28 03:58:44;;;;;;;8.63;2.15;;;;;;;13.23;100.00;98253.31;5078926;28;20027;-96
2022/06/28 04:01:10;;;;;;;16.98;3.05;;;;;;;13.53;100.00;98252.50;5080611;28;20059;-95
2022/06/28 04:03:35;;;;;;;11.43;2.22;;;;;;;13.75;100.00;98255.34;5079886;28;20782;-95
2022/06/28 04:06:02;;;;;;;11.43;2.28;;;;;;;13.86;100.00;98250.63;5094825;28;20023;-95
2022/06/28 04:08:28;;;;;;;12.55;2.40;;;;;;;13.75;100.00;98250.13;5077145;28;20459;-95
2022/06/28 04:11:13;;;;;;;14.13;2.53;;;;;;;13.53;100.00;98255.13;5090993;28;20036;-96
2022/06/28 04:13:40;;;;;;;13.25;2.35;;;;;;;13.56;100.00;98261.16;5094510;28;20063;-95
2022/06/28 04:16:06;;;;;;;18.33;2.75;;;;;;;13.91;100.00;98263.63;5079709;28;20104;-95
2022/06/28 04:18:32;;;;;;;11.45;2.00;;;;;;;13.91;100.00;98255.75;5077873;28;20055;-96
2022/06/28 04:20:58;;;;;;;12.27;1.92;;;;;;;14.41;100.00;98242.81;5097904;28;20020;-96
2022/06/28 04:23:23;;;;;;;11.10;2.15;;;;;;;14.14;100.00;98231.44;5103512;28;20024;-95
2022/06/28 04:25:49;;;;;;;13.35;2.17;;;;;;;14.11;100.00;98242.91;5081643;28;20534;-95
2022/06/28 04:28:15;;;;;;;13.35;2.60;;;;;;;13.95;100.00;98232.03;5103761;28;20023;-95
2022/06/28 04:30:41;;;;;;;12.60;2.15;;;;;;;13.75;100.00;98239.63;5082302;28;20032;-95
2022/06/28 04:33:08;;;;;;;15.70;2.08;;;;;;;13.75;100.00;98230.03;5081518;28;20035;-96
2022/06/28 04:35:34;;;;;;;12.98;2.25;;;;;;;13.77;100.00;98230.81;5078500;28;20032;-96
2022/06/28 04:38:01;;;;;;;12.60;1.80;;;;;;;13.97;100.00;98235.47;5076726;28;20427;-96
2022/06/28 04:40:27;;;;;;;12.48;2.28;;;;;;;14.08;100.00;98218.53;5101643;28;20691;-95
2022/06/28 04:42:52;;;;;;;10.80;2.10;;;;;;;14.03;100.00;98223.06;5082668;28;20046;-96
2022/06/28 04:45:18;;;;;;;11.93;2.10;;;;;;;13.98;100.00;98231.06;5097627;28;20035;-95
2022/06/28 04:47:43;;;;;;;11.05;2.30;;;;;;;13.91;100.00;98226.94;5080392;28;20024;-95
2022/06/28 04:50:09;;;;;;;12.50;2.08;;;;;;;13.81;100.00;98214.09;5099298;28;20032;-96
2022/06/28 04:52:36;;;;;;;16.80;2.13;;;;;;;14.21;100.00;98212.00;5100220;28;20036;-96
2022/06/28 04:55:02;;;;;;;13.07;2.30;;;;;;;13.83;100.00;98214.94;5083850;28;20044;-95
2022/06/28 04:57:28;;;;;;;15.52;2.30;;;;;;;14.10;100.00;98220.19;5068511;28;20039;-95
2022/06/28 04:59:54;;;;;;;14.68;2.15;;;;;;;13.93;100.00;98210.25;5063549;28;22092;-96
2022/06/28 05:02:19;;;;;;;11.48;1.90;;;;;;;14.30;100.00;98201.19;5066272;28;20052;-95
2022/06/28 05:04:47;;;;;;;17.33;2.88;;;;;;;14.29;100.00;98196.88;5079555;28;20036;-95
2022/06/28 05:07:13;;;;;;;12.93;2.22;;;;;;;14.09;100.00;98197.50;5069404;28;20036;-96
2022/06/28 05:09:40;;;;;;;11.15;1.90;;;;;;;14.47;100.00;98200.63;5072340;28;20032;-95
2022/06/28 05:12:06;;;;;;;17.38;2.63;;;;;;;14.83;100.00;98195.03;5071211;28;20055;-96
2022/06/28 05:14:32;;;;;;;11.05;2.33;;;;;;;14.54;100.00;98188.13;5072634;28;20024;-95
2022/06/28 05:17:01;;;;;;;15.68;2.20;;;;;;;14.35;100.00;98187.94;5070795;28;20036;-95
2022/06/28 05:19:31;;;;;;;9.77;2.20;;;;;;;14.36;100.00;98179.13;5068534;28;20123;-95
2022/06/28 05:21:57;;;;;;;12.23;2.42;;;;;;;14.78;100.00;98173.34;5076179;28;20035;-94
2022/06/28 05:24:23;;;;;;;14.52;2.42;;;;;;;14.68;100.00;98175.44;5109368;28;20057;-92
2022/06/28 05:26:49;;;;;;;17.95;2.20;;;;;;;14.72;100.00;98170.94;5108858;28;20060;-93
2022/06/28 05:29:15;;;;;;;14.57;2.25;;;;;;;14.72;100.00;98183.22;5083313;28;20181;-94
2022/06/28 05:31:41;;;;;;;16.17;2.53;;;;;;;15.00;100.00;98176.06;5102747;28;20031;-94
2022/06/28 05:34:10;;;;;;;11.77;2.40;;;;;;;15.10;100.00;98178.34;5070119;28;20035;-94
2022/06/28 05:36:37;;;;;;;10.80;2.30;;;;;;;15.04;100.00;98176.78;5072483;28;20047;-94
2022/06/28 05:39:08;;;;;;;15.52;2.72;;;;;;;15.20;100.00;98171.84;5066667;28;20036;-94
2022/06/28 05:41:36;;;;;;;9.63;2.08;;;;;;;14.94;100.00;98184.16;5061051;28;20024;-94
2022/06/28 05:44:02;;;;;;;10.48;2.30;;;;;;;14.85;100.00;98177.47;5087244;28;20508;-95
2022/06/28 05:46:28;;;;;;;11.18;2.45;;;;;;;15.40;100.00;98172.88;5065455;28;20047;-96
2022/06/28 05:48:56;;;;;;;16.05;2.10;;;;;;;14.78;100.00;98169.84;5087726;28;20088;-95
2022/06/28 05:51:21;;;;;;;13.77;2.25;;;;;;;14.66;100.00;98169.38;5062644;28;20042;-94
2022/06/28 05:53:50;;;;;;;10.50;2.25;;;;;;;14.67;100.00;98180.75;5065210;28;20032;-95
2022/06/28 05:56:16;;;;;;;9.40;2.25;;;;;;;14.92;100.00;98171.97;5074556;28;20516;-96
2022/06/28 05:58:42;;;;;;;15.40;2.45;;;;;;;15.17;100.00;98179.81;5076662;28;20124;-96
2022/06/28 06:01:08;;;;;;;16.35;2.35;;;;;;;15.31;100.00;98174.94;5076412;28;20032;-96
2022/06/28 06:03:38;;;;;;;11.43;2.10;;;;;;;14.92;100.00;98179.84;5080941;28;20031;-96
2022/06/28 06:06:06;;;;;;;18.20;2.30;;;;;;;14.86;100.00;98180.94;5083619;28;20028;-96
2022/06/28 06:08:32;;;;;;;11.25;2.08;;;;;;;14.62;100.00;98191.38;5079314;28;20494;-96
2022/06/28 06:10:58;;;;;;;15.30;2.40;;;;;;;15.07;100.00;98181.09;5075387;28;20036;-96
2022/06/28 06:13:24;;;;;;;12.45;2.47;;;;;;;15.22;100.00;98174.41;5077957;28;20028;-96
2022/06/28 06:15:51;;;;;;;14.18;2.67;;;;;;;14.97;100.00;98178.78;5071063;28;20040;-96
2022/06/28 06:18:19;;;;;;;12.10;2.17;;;;;;;14.80;100.00;98179.41;5081538;28;20114;-95
2022/06/28 06:20:52;;;;;;;15.32;2.30;;;;;;;14.84;100.00;98177.53;5073927;28;20036;-95
2022/06/28 06:23:17;;;;;;;12.73;2.37;;;;;;;14.94;100.00;98191.19;5077567;28;20093;-96
2022/06/28 06:25:45;;;;;;;12.77;2.28;;;;;;;14.82;100.00;98182.84;5078688;28;20147;-96
2022/06/28 06:28:11;;;;;;;14.90;2.15;;;;;;;14.89;100.00;98183.47;5072298;28;20028;-95
2022/06/28 06:30:37;;;;;;;16.25;2.40;;;;;;;14.75;100.00;98196.22;5076253;28;20354;-95
2022/06/28 06:33:03;;;;;;;13.40;2.40;;;;;;;14.58;100.00;98184.50;5073489;28;20032;-96
2022/06/28 06:35:34;;;;;;;15.30;2.40;;;;;;;14.53;100.00;98191.69;5074397;28;20055;-96
2022/06/28 06:38:02;;;;;;;16.77;2.35;;;;;;;15.35;100.00;98189.66;5064453;28;20024;-96
2022/06/28 06:40:38;;;;;;;13.68;2.53;;;;;;;14.91;100.00;98189.53;5074779;28;20024;-95
2022/06/28 06:43:04;;;;;;;16.13;2.97;;;;;;;14.48;100.00;98188.38;5067484;28;20040;-96
2022/06/28 06:45:30;;;;;;;13.75;2.65;;;;;;;14.70;100.00;98191.13;5073008;28;20024;-96
2022/06/28 06:47:59;;;;;;;11.77;2.20;;;;;;;14.65;100.00;98207.03;5075205;28;20024;-95
2022/06/28 06:50:24;;;;;;;12.70;2.55;;;;;;;14.91;100.00;98191.31;5083182;28;20036;-96
2022/06/28 06:52:50;;;;;;;15.60;2.47;;;;;;;14.77;100.00;98191.78;5077658;28;20093;-95
2022/06/28 06:55:18;;;;;;;13.63;2.45;;;;;;;14.93;100.00;98179.81;5076463;28;20044;-95
2022/06/28 06:57:45;;;;;;;13.10;2.50;;;;;;;15.10;100.00;98191.47;5066733;28;20023;-96
2022/06/28 07:00:11;;;;;;;12.88;2.50;;;;;;;15.19;100.00;98172.75;5066631;28;20063;-93
2022/06/28 07:02:42;;;;;;;15.23;2.90;;;;;;;15.23;100.00;98166.47;5066922;28;20035;-96
2022/06/28 07:05:12;;;;;;;14.05;2.58;;;;;;;15.63;100.00;98169.34;5067399;28;20024;-96
2022/06/28 07:07:39;;;;;;;10.18;2.42;;;;;;;15.68;100.00;98176.16;5070373;28;20028;-95
2022/06/28 07:10:07;;;;;;;20.50;2.80;;;;;;;15.66;100.00;98167.44;5069704;28;20549;-95
2022/06/28 07:12:39;;;;;;;16.83;2.60;;;;;;;15.41;100.00;98179.84;5068477;28;20024;-93
2022/06/28 07:15:05;;;;;;;13.65;2.40;;;;;;;16.10;100.00;98181.53;5087180;28;20335;-95
2022/06/28 07:17:40;;;;;;;14.82;2.47;;;;;;;15.90;100.00;98179.72;5075080;28;20019;-92
2022/06/28 07:20:06;;;;;;;13.48;2.22;;;;;;;15.76;100.00;98183.72;5079506;28;20024;-95
2022/06/28 07:22:33;;;;;;;16.33;2.20;;;;;;;16.13;100.00;98187.56;5076407;28;20084;-93
2022/06/28 07:24:59;;;;;;;10.10;2.00;;;;;;;16.38;100.00;98187.38;5093068;28;20031;-93
2022/06/28 07:27:28;;;;;;;12.85;2.15;;;;;;;16.66;100.00;98187.97;5071806;28;20056;-94
2022/06/28 07:29:54;;;;;;;14.15;2.20;;;;;;;16.55;100.00;98181.41;5074027;28;20052;-93
2022/06/28 07:32:20;;;;;;;16.63;2.45;;;;;;;16.48;100.00;98189.63;5075355;28;20035;-92
2022/06/28 07:34:49;;;;;;;14.20;2.78;;;;;;;15.94;100.00;98183.94;5091812;28;20024;-94
2022/06/28 07:37:15;;;;;;;14.20;2.20;;;;;;;16.45;100.00;98184.47;5074799;28;20036;-93
2022/06/28 07:39:41;;;;;;;13.63;2.13;;;;;;;16.75;100.00;98170.94;5071009;28;20040;-94
2022/06/28 07:42:07;;;;;;;15.20;2.38;;;;;;;16.46;100.00;98187.03;5071190;28;20032;-93
2022/06/28 07:44:33;;;;;;;10.45;2.22;;;;;;;16.66;100.00;98178.31;5075312;28;20034;-94
2022/06/28 07:47:01;;;;;;;20.02;2.65;;;;;;;16.65;100.00;98167.84;5073887;28;20095;-93
2022/06/28 07:52:33;;;;;;;10.23;2.13;;;;;;;16.68;100.00;98165.94;5067021;28;20031;-93
2022/06/28 07:54:56;;;;;;;11.25;2.15;;;;;;;16.59;100.00;98161.06;5086353;28;20069;-93
2022/06/28 07:57:29;;;;;;;13.32;2.60;;;;;;;16.55;100.00;98154.22;5078839;28;20809;-93
2022/06/28 07:59:55;;;;;;;18.88;2.67;;;;;;;16.60;100.00;98168.03;5082683;28;20122;-94
2022/06/28 08:02:24;;;;;;;12.27;2.13;;;;;;;16.90;100.00;98151.88;5096475;28;20024;-93
2022/06/28 08:04:52;;;;;;;13.10;2.20;;;;;;;17.18;100.00;98156.72;5094275;28;20067;-94
2022/06/28 08:07:24;;;;;;;12.55;2.40;;;;;;;17.28;100.00;98153.69;5089762;28;20040;-93
2022/06/28 08:09:50;;;;;;;14.90;2.30;;;;;;;17.30;100.00;98167.63;5091162;28;20038;-92
2022/06/28 08:12:38;;;;;;;11.32;2.50;;;;;;;17.55;100.00;98149.75;5080251;28;20028;-94
2022/06/28 08:15:08;;;;;;;10.57;2.10;;;;;;;16.80;100.00;98158.41;5075602;28;20032;-89
2022/06/28 08:17:34;;;;;;;10.77;2.08;;;;;;;16.82;100.00;98156.56;5073128;28;20024;-92
2022/06/28 08:20:00;;;;;;;13.18;1.98;;;;;;;17.18;100.00;98161.16;5097869;28;20053;-91
2022/06/28 08:22:26;;;;;;;11.60;2.60;;;;;;;17.68;100.00;98152.66;5077583;28;20094;-96
2022/06/28 08:24:51;;;;;;;14.00;2.50;;;;;;;17.59;100.00;98155.72;5082717;28;20070;-95
2022/06/28 08:27:17;;;;;;;11.77;1.80;;;;;;;17.35;100.00;98168.28;5089002;28;20027;-94
2022/06/28 08:29:45;;;;;;;15.35;2.63;;;;;;;17.02;100.00;98155.72;5080728;28;20027;-96
2022/06/28 08:32:12;;;;;;;14.20;2.75;;;;;;;17.52;100.00;98157.81;5082612;28;20110;-95
2022/06/28 08:34:38;;;;;;;13.23;2.53;;;;;;;17.09;100.00;98158.94;5080194;28;20034;-95
2022/06/28 08:37:05;;;;;;;14.70;2.42;;;;;;;17.15;100.00;98156.88;5084470;28;20285;-94
2022/06/28 08:39:32;;;;;;;13.82;2.45;;;;;;;17.38;100.00;98165.50;5108890;28;20099;-95
2022/06/28 08:42:03;;;;;;;19.67;4.00;;;;;;;17.56;100.00;98142.69;5096266;28;20120;-95
2022/06/28 08:44:32;;;;;;;13.32;2.80;;;;;;;17.37;100.00;98135.66;5077732;28;20118;-95
2022/06/28 08:46:59;;;;;;;32.47;6.40;;;;;;;17.96;100.00;98159.28;5100408;28;20036;-95
2022/06/28 08:49:47;;;;;;;17.73;3.47;;;;;;;17.74;100.00;98156.78;5097505;28;20083;-94
2022/06/28 08:52:17;;;;;;;13.55;2.80;;;;;;;17.82;100.00;98148.50;5080075;28;20050;-95
2022/06/28 08:54:43;;;;;;;15.15;2.60;;;;;;;18.16;100.00;98144.25;5075859;28;20111;-95
2022/06/28 08:57:09;;;;;;;33.63;6.57;;;;;;;18.43;100.00;98148.13;5072708;28;20063;-96
2022/06/28 08:59:36;;;;;;;12.18;2.03;;;;;;;18.79;100.00;98154.25;5070345;28;20439;-95
2022/06/28 09:02:07;;;;;;;13.73;2.28;;;;;;;17.86;100.00;98145.66;5070886;28;20039;-96
2022/06/28 09:04:33;;;;;;;15.68;2.30;;;;;;;18.11;100.00;98138.31;5071242;28;20016;-95
2022/06/28 09:07:07;;;;;;;17.00;2.10;;;;;;;18.37;100.00;98137.91;5076817;28;20016;-95
2022/06/28 09:09:33;;;;;;;12.45;2.30;;;;;;;18.15;100.00;98121.41;5076220;28;20054;-96
2022/06/28 09:12:01;;;;;;;12.85;2.30;;;;;;;18.68;100.00;98133.66;5072807;28;20029;-95
2022/06/28 09:14:35;;;;;;;16.98;2.45;;;;;;;18.31;100.00;98124.16;5073927;28;20033;-94
2022/06/28 09:17:21;;;;;;;16.27;2.70;;;;;;;18.86;100.00;98121.28;5071233;28;20055;-95
2022/06/28 09:19:52;;;;;;;12.35;2.20;;;;;;;18.58;100.00;98128.00;5064853;28;20073;-92
2022/06/28 09:22:29;;;;;;;12.32;3.00;;;;;;;18.03;100.00;98141.38;5067332;28;20024;-91
2022/06/28 09:24:55;;;;;;;11.95;1.95;;;;;;;17.95;100.00;98122.41;5069080;28;20123;-90
2022/06/28 09:27:35;;;;;;;9.90;2.25;;;;;;;18.24;100.00;98120.97;5066019;28;20091;-93
2022/06/28 09:30:04;;;;;;;14.25;2.15;;;;;;;18.19;100.00;98120.31;5071946;28;20016;-94
2022/06/28 09:32:33;;;;;;;15.07;2.38;;;;;;;18.67;100.00;98117.91;5075024;28;20024;-94
2022/06/28 09:35:01;;;;;;;16.15;3.05;;;;;;;18.52;100.00;98117.75;5066590;28;20571;-92
2022/06/28 09:37:56;;;;;;;14.00;2.28;;;;;;;18.88;100.00;98116.78;5072100;28;20043;-93
2022/06/28 09:40:26;;;;;;;10.75;2.00;;;;;;;19.02;100.00;98123.97;5081763;28;20520;-93
2022/06/28 09:43:10;;;;;;;15.30;2.17;;;;;;;18.81;100.00;98112.72;5066836;28;20044;-92
2022/06/28 09:45:36;;;;;;;;;;;;;;;19.18;100.00;98123.13;5068861;28;20035;-94
2022/06/28 09:48:02;;;;;;;12.00;2.50;;;;;;;18.56;100.00;98108.72;5069482;28;19912;-93
2022/06/28 09:50:30;;;;;;;11.65;2.30;;;;;;;18.88;100.00;98105.38;5070591;28;20036;-94
2022/06/28 09:52:58;;;;;;;16.73;3.03;;;;;;;19.02;100.00;98105.47;5073104;28;20492;-93
2022/06/28 09:55:27;;;;;;;9.25;2.17;;;;;;;19.33;100.00;98102.94;5083631;28;20142;-92
2022/06/28 09:57:53;;;;;;;12.63;2.30;;;;;;;19.21;100.00;98102.69;5074459;28;20483;-93
2022/06/28 10:00:24;;;;;;;13.60;1.88;;;;;;;19.30;100.00;98096.03;5080909;28;20036;-93
2022/06/28 10:02:53;;;;;;;14.50;2.63;;;;;;;18.99;100.00;98095.06;5087109;28;20028;-91
2022/06/28 10:05:19;;;;;;;15.50;2.22;;;;;;;19.20;100.00;98100.13;5081974;28;20809;-91
2022/06/28 10:07:49;;;;;;;12.93;2.15;;;;;;;19.47;100.00;98083.66;5073438;28;20051;-92
2022/06/28 10:10:15;;;;;;;10.65;2.03;;;;;;;20.06;100.00;98084.72;5074709;28;20034;-92
2022/06/28 10:15:35;;;;;;;12.80;2.33;;;;;;;19.65;100.00;98072.03;5091956;28;20055;-92
2022/06/28 10:18:03;;;;;;;11.55;2.08;;;;;;;20.82;100.00;98074.94;5093484;28;20040;-93
2022/06/28 10:20:30;;;;;;;8.57;1.90;;;;;;;20.87;100.00;98069.34;5077102;28;20063;-92
2022/06/28 10:23:21;;;;;;;10.60;2.05;;;;;;;21.04;96.37;98076.22;5076610;28;20023;-91
2022/06/28 10:26:08;;;;;;;13.35;2.40;;;;;;;20.89;98.05;98078.03;5062100;28;20042;-92
2022/06/28 10:28:42;;;;;;;11.70;2.10;;;;;;;21.39;93.63;98067.81;5069410;28;20031;-92
2022/06/28 10:31:23;;;;;;;12.65;1.98;;;;;;;20.59;95.08;98065.72;5074914;28;20492;-92
2022/06/28 10:33:54;;;;;;;8.35;1.83;;;;;;;21.01;96.85;98057.88;5077532;28;20070;-91
2022/06/28 10:36:26;;;;;;;9.23;1.90;;;;;;;20.28;97.86;98075.50;5077679;28;20073;-92
2022/06/28 10:39:00;;;;;;;11.27;1.73;;;;;;;19.92;98.64;98068.78;5086642;28;20028;-92
2022/06/28 10:41:43;;;;;;;8.18;1.52;;;;;;;20.07;95.58;98069.66;5083469;28;20024;-92
2022/06/28 10:44:12;;;;;;;10.70;1.63;;;;;;;20.10;97.59;98069.50;5074761;28;20106;-94
2022/06/28 10:46:39;;;;;;;8.52;1.67;;;;;;;19.67;97.75;98070.16;5087137;28;20085;-92
2022/06/28 10:49:10;;;;;;;7.25;1.50;;;;;;;19.97;96.71;98064.06;5086600;28;20040;-93
2022/06/28 10:51:40;;;;;;;13.32;1.95;;;;;;;20.13;100.00;98064.88;5069549;28;20093;-93
2022/06/28 10:54:09;;;;;;;9.30;1.80;;;;;;;20.32;98.56;98063.78;5073597;28;20040;-94
2022/06/28 10:56:39;;;;;;;9.32;1.80;;;;;;;20.26;98.99;98061.50;5073853;28;20043;-93
2022/06/28 10:59:07;;;;;;;10.65;2.05;;;;;;;20.56;96.78;98060.59;5072334;28;20024;-93
2022/06/28 11:01:39;;;;;;;12.52;1.73;;;;;;;20.55;96.87;98061.53;5066088;28;20377;-94
2022/06/28 11:04:19;;;;;;;15.05;1.88;;;;;;;20.72;97.70;98064.00;5070386;28;20082;-93
2022/06/28 11:06:57;;;;;;;12.75;2.25;;;;;;;20.97;95.71;98054.53;5072189;28;20032;-95
2022/06/28 11:09:58;;;;;;;14.57;2.08;;;;;;;21.70;95.02;98044.63;5075402;28;20036;-93
2022/06/28 11:12:30;;;;;;;13.60;1.95;;;;;;;20.67;95.21;98055.50;5091342;28;20062;-92
2022/06/28 11:14:58;;;;;;;7.63;1.63;;;;;;;20.20;94.51;98046.00;5090254;28;20121;-93
2022/06/28 11:17:32;;;;;;;14.95;1.90;;;;;;;20.29;96.32;98042.78;5071810;28;20150;-93
2022/06/28 11:20:11;;;;;;;13.48;2.03;;;;;;;20.64;97.59;98045.09;5069824;28;20032;-93
2022/06/28 11:22:48;;;;;;;12.18;2.00;;;;;;;20.20;96.50;98046.00;5084825;28;20032;-93
2022/06/28 11:25:21;;;;;;;8.60;2.05;;;;;;;20.40;97.66;98043.00;5062509;28;20695;-93
2022/06/28 11:27:52;;;;;;;10.20;1.90;;;;;;;21.26;93.91;98042.09;5080164;28;20053;-93
2022/06/28 11:30:20;;;;;;;8.40;1.83;;;;;;;20.89;93.46;98033.84;5068805;28;20028;-94
2022/06/28 11:32:50;;;;;;;12.90;1.73;;;;;;;21.36;93.33;98036.19;5067865;28;20501;-93
2022/06/28 11:35:30;;;;;;;8.60;1.80;;;;;;;21.60;92.82;98042.59;5073327;28;20028;-93
2022/06/28 11:37:58;;;;;;;10.32;1.92;;;;;;;21.05;93.72;98036.34;5074019;28;20028;-93
2022/06/28 11:40:42;;;;;;;10.07;2.00;;;;;;;20.70;94.51;98038.59;5073834;28;20562;-93